Guttenberg, Iowa
Current Conditions -  °F | °C
As of 10:35 PM on Saturday 22 Nov 2014 (Local Time) from KPDC Reporting Station
Overcast Overcast  
Wind Chill: 53°   Ceiling: 1300
Heat Index: 53°   Visibility: 7mi
Dew Point: 49°   Wind: 3mph
Humidity: 87%   Direction: 160°SSE
Pressure: 29.68"   Gusts: NA
Location:  42.79°N, 91.1°W
Report Text: KPDC 230435Z AUTO 16003KT 7SM OVC013 12/10 A2968 RMK AO2 T01160095
Loading
Personal Weather Stations






























Interactive Weather Map New forecast layout! Learn more

10-Day Weather Forecast

Advertisements
Track Severe Weather on mobile